< < Back
Terminal Aerodrome Forecast


Current Version              Previous Versions:   1  2  3  4  5  6  7  8  9  

Terminal Aerodrome Forecast

027
FTUS44 KBMX 262038 AAB
TAFBHM
TAF AMD
KBHM 262038Z 2621/2718 19005G19KT P6SM SHRA SCT060
      TEMPO 2621/2622 TSRA SCT030CB
     FM271500 35004KT P6SM SCT100=

Latest METAR

806
SAUS70 KWBC 262200 RRA
MTRBHM
METAR KBHM 262153Z VRB04KT 10SM SCT075 OVC250 27/19 A2998 RMK AO2 SLP145
T02720189


USA.gov is the U.S. government's official web portal to all federal, state and local government web resources and services.